createdAt,value
2017-07-18T00:02:24.046Z,18.90
2017-07-18T00:04:51.525Z,18.80
2017-07-18T00:07:19.813Z,18.80
2017-07-18T00:09:47.321Z,18.80
2017-07-18T00:12:14.888Z,18.80
2017-07-18T00:14:42.371Z,18.60
2017-07-18T00:17:09.957Z,18.60
2017-07-18T00:19:38.241Z,18.50
2017-07-18T00:22:05.729Z,18.50
2017-07-18T00:24:33.217Z,18.50
2017-07-18T00:27:00.765Z,18.40
2017-07-18T00:29:28.517Z,18.30
2017-07-18T00:31:56.002Z,18.30
2017-07-18T00:34:23.503Z,18.30
2017-07-18T00:36:51.155Z,18.20
2017-07-18T00:39:18.657Z,18.10
2017-07-18T00:41:46.301Z,18.10
2017-07-18T00:44:13.849Z,18.00
2017-07-18T00:46:41.390Z,18.00
2017-07-18T00:49:08.938Z,18.00
2017-07-18T00:51:36.474Z,18.00
2017-07-18T00:54:03.953Z,18.00
2017-07-18T00:56:31.461Z,17.90
2017-07-18T00:58:59.065Z,17.90
2017-07-18T01:01:26.544Z,17.80
2017-07-18T01:03:54.021Z,17.80
2017-07-18T01:06:21.529Z,17.70
2017-07-18T01:08:49.012Z,17.70
2017-07-18T01:11:16.513Z,17.70
2017-07-18T01:13:44.029Z,17.60
2017-07-18T01:16:11.512Z,17.60
2017-07-18T01:18:38.993Z,17.60
2017-07-18T01:21:06.584Z,17.60
2017-07-18T01:23:34.131Z,17.50
2017-07-18T01:26:01.621Z,17.50
2017-07-18T01:28:29.230Z,17.40
2017-07-18T01:30:56.717Z,17.40
2017-07-18T01:33:24.200Z,17.40
2017-07-18T01:35:51.953Z,17.30
2017-07-18T01:38:19.497Z,17.30
2017-07-18T01:40:47.083Z,17.30
2017-07-18T01:43:14.625Z,17.20
2017-07-18T01:45:42.115Z,17.20
2017-07-18T01:48:09.596Z,17.20
2017-07-18T01:50:37.971Z,17.10
2017-07-18T01:53:05.517Z,17.00
2017-07-18T01:55:33.060Z,17.10
2017-07-18T01:58:00.914Z,17.00
2017-07-18T02:00:28.478Z,17.00
2017-07-18T02:02:55.996Z,17.00
2017-07-18T02:05:23.488Z,17.00
2017-07-18T02:07:50.973Z,16.90
2017-07-18T02:10:18.734Z,16.90
2017-07-18T02:12:46.275Z,16.90
2017-07-18T02:15:13.816Z,16.80
2017-07-18T02:17:41.313Z,16.80
2017-07-18T02:20:09.662Z,16.80
2017-07-18T02:22:37.157Z,16.70
2017-07-18T02:25:04.709Z,16.60
2017-07-18T02:27:32.194Z,16.50
2017-07-18T02:29:59.692Z,16.50
2017-07-18T02:32:27.342Z,16.40
2017-07-18T02:34:54.882Z,16.40
2017-07-18T02:37:22.432Z,16.30
2017-07-18T02:39:49.920Z,16.30
2017-07-18T02:42:17.461Z,16.30
2017-07-18T02:44:45.010Z,16.20
2017-07-18T02:47:12.500Z,16.20
2017-07-18T02:49:40.088Z,16.20
2017-07-18T02:52:07.569Z,16.10
2017-07-18T02:54:35.157Z,16.10
2017-07-18T02:57:03.409Z,16.00
2017-07-18T02:59:31.697Z,16.00
2017-07-18T03:01:59.245Z,16.00
2017-07-18T03:04:27.089Z,16.00
2017-07-18T03:06:54.641Z,16.00
2017-07-18T03:09:22.288Z,16.00
2017-07-18T03:11:49.825Z,15.90
2017-07-18T03:14:17.309Z,15.90
2017-07-18T03:16:44.809Z,15.80
2017-07-18T03:19:12.354Z,15.80
2017-07-18T03:21:39.834Z,15.80
2017-07-18T03:24:07.482Z,15.80
2017-07-18T03:26:34.984Z,15.80
2017-07-18T03:29:02.475Z,15.70
2017-07-18T03:31:30.072Z,15.70
2017-07-18T03:33:57.620Z,15.70
2017-07-18T03:36:25.110Z,15.70
2017-07-18T03:38:53.402Z,15.70
2017-07-18T03:41:20.896Z,15.70
2017-07-18T03:43:48.417Z,15.70
2017-07-18T03:46:15.929Z,15.70
2017-07-18T03:48:43.420Z,15.60
2017-07-18T03:51:11.012Z,15.60
2017-07-18T03:53:38.496Z,15.60
2017-07-18T03:56:05.997Z,15.50
2017-07-18T03:58:33.481Z,15.50
2017-07-18T04:01:00.994Z,15.60
2017-07-18T04:03:28.482Z,15.60
2017-07-18T04:05:55.955Z,15.50
2017-07-18T04:08:24.329Z,15.50
2017-07-18T04:10:51.874Z,15.50
2017-07-18T04:13:19.417Z,15.50
2017-07-18T04:15:47.067Z,15.50
2017-07-18T04:18:14.562Z,15.50
2017-07-18T04:20:42.173Z,15.60
2017-07-18T04:23:09.797Z,15.60
2017-07-18T04:25:37.276Z,15.60
2017-07-18T04:28:04.757Z,15.50
2017-07-18T04:30:33.039Z,15.50
2017-07-18T04:33:00.590Z,15.50
2017-07-18T04:35:28.068Z,15.50
2017-07-18T04:37:55.614Z,15.60
2017-07-18T04:40:23.865Z,15.60
2017-07-18T04:42:51.381Z,15.60
2017-07-18T04:45:18.889Z,15.60
2017-07-18T04:47:46.368Z,15.60
2017-07-18T04:50:13.872Z,15.70
2017-07-18T04:52:41.421Z,15.70
2017-07-18T04:55:08.960Z,15.80
2017-07-18T04:57:36.461Z,15.80
2017-07-18T05:00:04.045Z,15.80
2017-07-18T05:02:31.529Z,15.80
2017-07-18T05:04:59.034Z,15.80
2017-07-18T05:07:26.572Z,15.90
2017-07-18T05:09:54.118Z,15.90
2017-07-18T05:12:21.598Z,15.90
2017-07-18T05:14:49.310Z,15.90
2017-07-18T05:17:16.853Z,16.00
2017-07-18T05:19:44.344Z,16.00
2017-07-18T05:22:11.866Z,16.00
2017-07-18T05:24:39.381Z,16.10
2017-07-18T05:27:06.922Z,16.10
2017-07-18T05:29:34.425Z,16.20
2017-07-18T05:32:02.005Z,16.20
2017-07-18T05:34:29.489Z,16.30
2017-07-18T05:36:56.976Z,16.30
2017-07-18T05:39:24.680Z,16.50
2017-07-18T05:41:52.225Z,16.60
2017-07-18T05:44:19.778Z,16.70
2017-07-18T05:46:47.320Z,16.70
2017-07-18T05:49:14.860Z,16.90
2017-07-18T05:51:42.404Z,17.00
2017-07-18T05:54:09.887Z,17.20
2017-07-18T05:56:37.389Z,17.40
2017-07-18T05:59:04.934Z,17.60
2017-07-18T06:01:32.422Z,17.70
2017-07-18T06:04:00.016Z,17.90
2017-07-18T06:06:27.505Z,18.00
2017-07-18T06:08:54.985Z,18.10
2017-07-18T06:11:23.464Z,18.20
2017-07-18T06:13:51.012Z,18.20
2017-07-18T06:16:18.507Z,18.30
2017-07-18T06:18:46.001Z,18.40
2017-07-18T06:21:13.538Z,18.50
2017-07-18T06:23:41.110Z,18.60
2017-07-18T06:26:08.829Z,18.70
2017-07-18T06:28:36.311Z,18.90
2017-07-18T06:31:03.817Z,19.00
2017-07-18T06:33:31.356Z,19.20
2017-07-18T06:35:58.900Z,19.30
2017-07-18T06:38:26.501Z,19.40
2017-07-18T06:40:53.982Z,19.50
2017-07-18T06:43:21.469Z,19.60
2017-07-18T06:45:49.732Z,19.70
2017-07-18T06:48:18.117Z,19.70
2017-07-18T06:50:45.649Z,19.70
2017-07-18T06:53:13.196Z,19.90
2017-07-18T06:55:40.680Z,19.90
2017-07-18T06:58:08.164Z,19.90
2017-07-18T07:00:36.537Z,20.10
2017-07-18T07:03:04.086Z,20.10
2017-07-18T07:05:31.571Z,20.10
2017-07-18T07:07:59.068Z,20.10
2017-07-18T07:10:26.546Z,20.10
2017-07-18T07:12:54.036Z,20.20
2017-07-18T07:15:22.318Z,20.20
2017-07-18T07:17:49.832Z,20.20
2017-07-18T07:20:18.081Z,20.30
2017-07-18T07:22:45.562Z,20.30
2017-07-18T07:25:13.103Z,20.40
2017-07-18T07:27:40.653Z,20.40
2017-07-18T07:30:08.141Z,20.50
2017-07-18T07:32:35.729Z,20.60
2017-07-18T07:35:03.282Z,20.70
2017-07-18T07:37:30.816Z,20.90
2017-07-18T07:39:59.089Z,21.20
2017-07-18T07:42:26.633Z,21.20
2017-07-18T07:44:54.179Z,21.30
2017-07-18T07:47:21.685Z,21.30
2017-07-18T07:49:49.169Z,21.40
2017-07-18T07:52:16.645Z,21.60
2017-07-18T07:54:44.218Z,21.60
2017-07-18T07:57:11.788Z,21.70
2017-07-18T07:59:39.267Z,21.80
2017-07-18T08:02:06.876Z,21.90
2017-07-18T08:04:34.352Z,21.90
2017-07-18T08:07:01.860Z,21.80
2017-07-18T08:09:29.370Z,21.70
2017-07-18T08:11:56.848Z,21.50
2017-07-18T08:14:24.402Z,21.50
2017-07-18T08:16:51.933Z,21.50
2017-07-18T08:19:19.412Z,21.40
2017-07-18T08:21:47.021Z,21.50
2017-07-18T08:24:14.501Z,21.50
2017-07-18T08:26:41.981Z,21.50
2017-07-18T08:29:10.264Z,21.50
2017-07-18T08:31:37.809Z,21.50
2017-07-18T08:34:05.352Z,21.50
2017-07-18T08:36:32.868Z,21.60
2017-07-18T08:39:01.121Z,21.60
2017-07-18T08:41:29.369Z,21.70
2017-07-18T08:43:56.949Z,21.70
2017-07-18T08:46:24.493Z,21.80
2017-07-18T08:48:52.036Z,21.90
2017-07-18T08:51:19.522Z,22.00
2017-07-18T08:53:47.019Z,22.00
2017-07-18T08:56:14.773Z,22.10
2017-07-18T08:58:42.313Z,22.00
2017-07-18T09:01:09.860Z,22.10
2017-07-18T09:03:37.398Z,22.20
2017-07-18T09:06:05.150Z,22.30
2017-07-18T09:08:32.629Z,22.20
2017-07-18T09:11:00.109Z,22.20
2017-07-18T09:13:28.493Z,22.30
2017-07-18T09:15:55.975Z,22.30
2017-07-18T09:18:23.481Z,22.30
2017-07-18T09:20:51.015Z,22.30
2017-07-18T09:23:19.292Z,22.50
2017-07-18T09:25:46.829Z,22.50
2017-07-18T09:28:14.340Z,22.60
2017-07-18T09:30:41.917Z,22.60
2017-07-18T09:33:09.458Z,22.70
2017-07-18T09:35:37.000Z,22.80
2017-07-18T09:38:04.517Z,22.90
2017-07-18T09:40:31.992Z,23.00
2017-07-18T09:42:59.473Z,23.10
2017-07-18T09:45:26.966Z,23.30
2017-07-18T09:47:54.464Z,23.40
2017-07-18T09:50:21.961Z,23.50
2017-07-18T09:52:49.445Z,23.60
2017-07-18T09:55:17.192Z,23.80
2017-07-18T09:57:44.753Z,23.90
2017-07-18T10:00:12.233Z,24.00
2017-07-18T10:02:39.820Z,24.10
2017-07-18T10:05:07.309Z,24.20
2017-07-18T10:07:34.788Z,24.20
2017-07-18T10:10:03.067Z,24.30
2017-07-18T10:12:30.608Z,24.30
2017-07-18T10:14:58.100Z,24.40
2017-07-18T10:17:25.705Z,24.50
2017-07-18T10:19:53.239Z,24.70
2017-07-18T10:22:20.785Z,24.80
2017-07-18T10:24:48.270Z,24.90
2017-07-18T10:27:15.749Z,25.10
2017-07-18T10:29:44.040Z,25.10
2017-07-18T10:32:11.545Z,25.10
2017-07-18T10:34:39.116Z,25.10
2017-07-18T10:37:06.628Z,25.20
2017-07-18T10:39:34.113Z,25.30
2017-07-18T10:42:01.691Z,25.30
2017-07-18T10:44:29.344Z,25.40
2017-07-18T10:46:56.884Z,25.40
2017-07-18T10:49:24.632Z,25.40
2017-07-18T10:51:52.181Z,25.50
2017-07-18T10:54:19.657Z,25.70
2017-07-18T10:56:47.160Z,25.70
2017-07-18T10:59:14.672Z,25.70
2017-07-18T11:01:42.152Z,25.80
2017-07-18T11:04:09.637Z,26.00
2017-07-18T11:06:37.213Z,26.20
2017-07-18T11:09:05.457Z,26.50
2017-07-18T11:11:33.136Z,26.40
2017-07-18T11:14:00.684Z,26.60
2017-07-18T11:16:28.170Z,26.70
2017-07-18T11:18:55.660Z,26.80
2017-07-18T11:21:23.224Z,26.90
2017-07-18T11:23:50.753Z,26.90
2017-07-18T11:26:18.232Z,27.10
2017-07-18T11:28:45.738Z,27.20
2017-07-18T11:31:13.488Z,27.30
2017-07-18T11:33:40.977Z,28.00
2017-07-18T11:36:08.468Z,28.90
2017-07-18T11:38:36.724Z,30.80
2017-07-18T11:41:04.965Z,31.80
2017-07-18T11:43:32.452Z,31.70
2017-07-18T11:45:59.993Z,32.80
2017-07-18T11:48:27.533Z,33.40
2017-07-18T11:50:55.012Z,33.40
2017-07-18T11:53:22.517Z,34.30
2017-07-18T11:55:50.004Z,34.70
2017-07-18T11:58:17.484Z,35.50
2017-07-18T12:00:45.972Z,37.10
2017-07-18T12:03:13.456Z,37.00
2017-07-18T12:05:40.932Z,38.10
2017-07-18T12:08:09.209Z,39.40
2017-07-18T12:10:36.688Z,39.30
2017-07-18T12:13:04.164Z,39.70
2017-07-18T12:15:31.744Z,39.80
2017-07-18T12:17:59.281Z,40.40
2017-07-18T12:20:26.772Z,40.80
2017-07-18T12:22:54.281Z,41.20
2017-07-18T12:25:21.813Z,41.00
2017-07-18T12:27:49.296Z,41.20
2017-07-18T12:30:16.808Z,41.50
2017-07-18T12:32:44.289Z,41.60
2017-07-18T12:35:11.772Z,42.40
2017-07-18T12:37:40.040Z,43.10
2017-07-18T12:40:07.517Z,43.10
2017-07-18T12:42:35.129Z,43.70
2017-07-18T12:45:02.677Z,42.90
2017-07-18T12:47:30.160Z,43.20
2017-07-18T12:49:57.827Z,42.50
2017-07-18T12:52:25.404Z,42.50
2017-07-18T12:54:52.948Z,42.70
2017-07-18T12:57:20.605Z,43.10
2017-07-18T12:59:48.150Z,43.40
2017-07-18T13:02:15.685Z,43.80
2017-07-18T13:04:43.228Z,44.20
2017-07-18T13:07:10.771Z,43.80
2017-07-18T13:09:38.517Z,43.90
2017-07-18T13:12:06.060Z,44.20
2017-07-18T13:14:33.605Z,44.30
2017-07-18T13:17:01.348Z,44.30
2017-07-18T13:19:28.896Z,44.50
2017-07-18T13:21:56.383Z,45.00
2017-07-18T13:24:24.088Z,45.40
2017-07-18T13:26:51.628Z,45.90
2017-07-18T13:29:19.172Z,46.30
2017-07-18T13:31:47.228Z,46.20
2017-07-18T13:34:14.775Z,46.30
2017-07-18T13:36:42.316Z,46.20
2017-07-18T13:39:10.588Z,47.20
2017-07-18T13:41:38.128Z,47.20
2017-07-18T13:44:05.618Z,47.10
2017-07-18T13:46:33.315Z,46.70
2017-07-18T13:49:00.797Z,46.60
2017-07-18T13:51:28.278Z,46.40
2017-07-18T13:53:56.769Z,46.10
2017-07-18T13:56:24.249Z,46.20
2017-07-18T13:58:51.757Z,46.50
2017-07-18T14:01:19.245Z,46.90
2017-07-18T14:03:46.720Z,46.70
2017-07-18T14:06:14.998Z,47.60
2017-07-18T14:08:42.477Z,47.60
2017-07-18T14:11:10.192Z,47.70
2017-07-18T14:13:37.672Z,47.40
2017-07-18T14:16:05.150Z,47.70
2017-07-18T14:18:33.432Z,47.10
2017-07-18T14:21:00.977Z,47.10
2017-07-18T14:23:28.456Z,47.50
2017-07-18T14:25:56.062Z,48.20
2017-07-18T14:28:23.540Z,47.70
2017-07-18T14:30:51.052Z,47.80
2017-07-18T14:33:18.596Z,48.20
2017-07-18T14:35:46.072Z,48.00
2017-07-18T14:38:13.680Z,48.10
2017-07-18T14:40:41.233Z,48.20
2017-07-18T14:43:08.708Z,48.40
2017-07-18T14:45:36.212Z,48.60
2017-07-18T14:48:03.761Z,48.80
2017-07-18T14:50:31.248Z,47.60
2017-07-18T14:52:58.741Z,47.80
2017-07-18T14:55:27.372Z,47.90
2017-07-18T14:57:55.673Z,48.10
2017-07-18T15:00:23.221Z,48.10
2017-07-18T15:02:50.757Z,48.60
2017-07-18T15:05:18.232Z,48.10
2017-07-18T15:07:45.747Z,48.20
2017-07-18T15:10:13.296Z,48.40
2017-07-18T15:12:40.777Z,47.80
2017-07-18T15:15:08.270Z,46.90
2017-07-18T15:17:35.812Z,47.30
2017-07-18T15:20:03.356Z,47.70
2017-07-18T15:22:30.900Z,47.30
2017-07-18T15:24:58.433Z,46.80
2017-07-18T15:27:26.676Z,47.30
2017-07-18T15:29:54.248Z,47.30
2017-07-18T15:32:21.793Z,47.70
2017-07-18T15:34:49.268Z,47.80
2017-07-18T15:37:16.744Z,48.40
2017-07-18T15:39:45.060Z,48.80
2017-07-18T15:42:12.537Z,48.80
2017-07-18T15:44:40.787Z,48.70
2017-07-18T15:47:08.376Z,48.60
2017-07-18T15:49:35.921Z,48.80
2017-07-18T15:52:03.401Z,48.90
2017-07-18T15:54:31.001Z,48.50
2017-07-18T15:56:58.540Z,48.20
2017-07-18T15:59:26.086Z,47.30
2017-07-18T16:01:53.625Z,46.80
2017-07-18T16:04:21.105Z,46.70
2017-07-18T16:06:48.714Z,46.70
2017-07-18T16:09:16.255Z,46.30
2017-07-18T16:11:43.801Z,45.70
2017-07-18T16:14:11.344Z,45.80
2017-07-18T16:16:38.888Z,45.90
2017-07-18T16:19:06.368Z,45.90
2017-07-18T16:21:33.874Z,45.70
2017-07-18T16:24:01.420Z,45.70
2017-07-18T16:26:28.964Z,46.10
2017-07-18T16:28:56.440Z,46.60
2017-07-18T16:31:23.912Z,47.30
2017-07-18T16:33:51.588Z,47.90
2017-07-18T16:36:19.078Z,48.10
2017-07-18T16:38:46.581Z,48.30
2017-07-18T16:41:14.093Z,48.30
2017-07-18T16:43:41.572Z,48.40
2017-07-18T16:46:09.050Z,48.00
2017-07-18T16:48:36.629Z,47.80
2017-07-18T16:51:04.912Z,46.40
2017-07-18T16:53:32.388Z,46.40
2017-07-18T16:56:00.002Z,46.00
2017-07-18T16:58:27.479Z,46.20
2017-07-18T17:00:54.968Z,46.30
2017-07-18T17:03:23.347Z,46.70
2017-07-18T17:05:50.888Z,46.70
2017-07-18T17:08:18.438Z,46.50
2017-07-18T17:10:45.954Z,46.20
2017-07-18T17:13:14.199Z,44.70
2017-07-18T17:15:41.677Z,44.70
2017-07-18T17:18:09.217Z,43.90
2017-07-18T17:20:36.765Z,42.70
2017-07-18T17:23:04.308Z,41.60
2017-07-18T17:25:31.843Z,40.40
2017-07-18T17:27:59.393Z,39.50
2017-07-18T17:30:26.936Z,38.60
2017-07-18T17:32:54.494Z,38.10
2017-07-18T17:35:21.992Z,37.20
2017-07-18T17:37:49.703Z,36.70
2017-07-18T17:40:17.330Z,36.30
2017-07-18T17:42:44.812Z,36.00
2017-07-18T17:45:12.296Z,35.70
2017-07-18T17:47:40.668Z,35.30
2017-07-18T17:50:08.224Z,35.30
2017-07-18T17:52:35.709Z,35.00
2017-07-18T17:55:04.124Z,34.50
2017-07-18T17:57:31.664Z,34.40
2017-07-18T17:59:59.217Z,34.20
2017-07-18T18:02:26.720Z,33.80
2017-07-18T18:04:54.307Z,33.50
2017-07-18T18:07:21.821Z,33.20
2017-07-18T18:09:50.097Z,32.80
2017-07-18T18:12:17.648Z,32.70
2017-07-18T18:14:45.230Z,32.60
2017-07-18T18:17:12.712Z,32.40
2017-07-18T18:19:41.197Z,32.00
2017-07-18T18:22:08.736Z,32.00
2017-07-18T18:24:36.214Z,31.90
2017-07-18T18:27:03.820Z,31.80
2017-07-18T18:29:31.304Z,31.80
2017-07-18T18:31:58.776Z,31.60
2017-07-18T18:34:26.361Z,31.40
2017-07-18T18:36:53.892Z,31.20
2017-07-18T18:39:21.373Z,31.00
2017-07-18T18:41:48.878Z,30.80
2017-07-18T18:44:16.356Z,30.80
2017-07-18T18:46:43.846Z,30.60
2017-07-18T18:49:11.392Z,30.60
2017-07-18T18:51:38.873Z,30.50
2017-07-18T18:54:06.373Z,30.20
2017-07-18T18:56:33.922Z,30.00
2017-07-18T18:59:01.401Z,29.80
2017-07-18T19:01:28.908Z,29.60
2017-07-18T19:03:56.445Z,29.50
2017-07-18T19:06:23.993Z,29.30
2017-07-18T19:08:51.497Z,29.20
2017-07-18T19:11:19.097Z,29.00
2017-07-18T19:13:46.580Z,28.90
2017-07-18T19:16:14.265Z,28.70
2017-07-18T19:18:41.813Z,28.60
2017-07-18T19:21:09.297Z,28.50
2017-07-18T19:23:37.716Z,28.40
2017-07-18T19:26:05.201Z,28.20
2017-07-18T19:28:32.706Z,28.20
2017-07-18T19:31:00.196Z,28.00
2017-07-18T19:33:27.888Z,27.90
2017-07-18T19:35:55.435Z,27.70
2017-07-18T19:38:22.997Z,27.60
2017-07-18T19:40:50.492Z,27.50
2017-07-18T19:43:18.080Z,27.40
2017-07-18T19:45:45.598Z,27.30
2017-07-18T19:48:13.857Z,27.10
2017-07-18T19:50:41.333Z,27.00
2017-07-18T19:53:08.828Z,26.90
2017-07-18T19:55:36.416Z,26.80
2017-07-18T19:58:04.164Z,26.80
2017-07-18T20:00:31.700Z,26.70
2017-07-18T20:02:59.244Z,26.70
2017-07-18T20:05:26.788Z,26.60
2017-07-18T20:07:54.275Z,26.50
2017-07-18T20:10:21.777Z,26.50
2017-07-18T20:12:49.292Z,26.40
2017-07-18T20:15:16.895Z,26.30
2017-07-18T20:17:44.371Z,26.20
2017-07-18T20:20:11.869Z,26.10
2017-07-18T20:22:39.343Z,26.10
2017-07-18T20:25:07.032Z,25.90
2017-07-18T20:27:34.508Z,25.80
2017-07-18T20:30:01.988Z,25.70
2017-07-18T20:32:29.552Z,25.70
2017-07-18T20:34:57.809Z,25.60
2017-07-18T20:37:26.089Z,25.50
2017-07-18T20:39:53.807Z,25.50
2017-07-18T20:42:21.352Z,25.50
2017-07-18T20:44:48.837Z,25.50
2017-07-18T20:47:16.432Z,25.40
2017-07-18T20:49:43.907Z,25.40
2017-07-18T20:52:11.428Z,25.30
2017-07-18T20:54:38.954Z,25.30
2017-07-18T20:57:06.450Z,25.20
2017-07-18T20:59:33.929Z,25.20
2017-07-18T21:02:02.317Z,24.90
2017-07-18T21:04:29.798Z,24.90
2017-07-18T21:06:57.293Z,24.90
2017-07-18T21:09:24.808Z,24.80
2017-07-18T21:11:52.371Z,24.80
2017-07-18T21:14:20.648Z,24.60
2017-07-18T21:16:48.189Z,24.60
2017-07-18T21:19:15.733Z,24.60
2017-07-18T21:21:43.281Z,24.60
2017-07-18T21:24:10.756Z,24.50
2017-07-18T21:26:38.265Z,24.40
2017-07-18T21:29:05.796Z,24.30
2017-07-18T21:31:33.284Z,24.30
2017-07-18T21:34:00.788Z,24.20
2017-07-18T21:36:28.325Z,24.20
2017-07-18T21:38:55.833Z,24.20
2017-07-18T21:41:23.313Z,24.10
2017-07-18T21:43:51.597Z,24.00
2017-07-18T21:46:19.140Z,23.90
2017-07-18T21:48:46.617Z,23.90
2017-07-18T21:51:14.101Z,23.90
2017-07-18T21:53:42.384Z,23.80
2017-07-18T21:56:09.913Z,23.80
2017-07-18T21:58:38.188Z,23.80
2017-07-18T22:01:05.947Z,23.80
2017-07-18T22:03:33.425Z,23.70
2017-07-18T22:06:00.912Z,23.60
2017-07-18T22:08:28.573Z,23.60
2017-07-18T22:10:56.056Z,23.50
2017-07-18T22:13:23.554Z,23.50
2017-07-18T22:15:51.048Z,23.40
2017-07-18T22:18:18.532Z,23.40
2017-07-18T22:20:46.977Z,23.30
2017-07-18T22:23:15.269Z,23.20
2017-07-18T22:25:42.803Z,23.20
2017-07-18T22:28:10.347Z,23.20
2017-07-18T22:30:37.836Z,23.10
2017-07-18T22:33:05.312Z,23.10
2017-07-18T22:35:33.796Z,23.00
2017-07-18T22:38:01.277Z,23.00
2017-07-18T22:40:29.573Z,22.90
2017-07-18T22:42:57.104Z,22.90
2017-07-18T22:45:24.592Z,22.90
2017-07-18T22:47:52.073Z,22.80
2017-07-18T22:50:20.448Z,22.70
2017-07-18T22:52:48.011Z,22.70
2017-07-18T22:55:15.537Z,22.70
2017-07-18T22:57:43.085Z,22.60
2017-07-18T23:00:10.624Z,22.60
2017-07-18T23:02:38.156Z,22.50
2017-07-18T23:05:06.545Z,22.50
2017-07-18T23:07:34.081Z,22.50
2017-07-18T23:10:01.621Z,22.50
2017-07-18T23:12:29.307Z,22.50
2017-07-18T23:14:56.804Z,22.40
2017-07-18T23:17:24.287Z,22.40
2017-07-18T23:19:51.777Z,22.40
2017-07-18T23:22:20.044Z,22.20
2017-07-18T23:24:48.312Z,22.20
2017-07-18T23:27:15.788Z,22.10
2017-07-18T23:29:43.284Z,22.10
2017-07-18T23:32:11.556Z,22.00
2017-07-18T23:34:39.101Z,22.00
2017-07-18T23:37:06.645Z,22.00
2017-07-18T23:39:34.124Z,22.00
2017-07-18T23:42:02.495Z,21.90
2017-07-18T23:44:30.042Z,21.90
2017-07-18T23:46:57.527Z,21.90
2017-07-18T23:49:25.016Z,21.90
2017-07-18T23:51:53.287Z,21.80
2017-07-18T23:54:20.828Z,21.80
2017-07-18T23:56:48.304Z,21.80
2017-07-18T23:59:15.913Z,21.80
